Time;durP1;ratioP1;P1;durP2;ratioP2;P2;SDS_P1;SDS_P2;PMS_P1;PMS_P2;Temp;Humidity;BMP_temperature;BMP_pressure;BME280_temperature;BME280_humidity;BME280_pressure;Samples;Min_cycle;Max_cycle;Signal;HPM_P1;HPM_P2
2021/04/01 00:01:49;;;;;;;4.80;3.13;;;19.60;50.90;;;;;;4900813;29;20270;-64
2021/04/01 00:04:15;;;;;;;3.08;2.78;;;19.60;50.90;;;;;;4917016;29;20620;-64
2021/04/01 00:06:40;;;;;;;3.00;2.80;;;19.60;50.90;;;;;;4916621;29;20230;-65
2021/04/01 00:09:06;;;;;;;3.40;3.10;;;19.60;50.90;;;;;;4917717;29;20184;-66
2021/04/01 00:11:32;;;;;;;3.60;3.30;;;19.60;50.90;;;;;;4900951;29;20712;-66
2021/04/01 00:14:01;;;;;;;4.10;3.42;;;19.60;50.90;;;;;;4918056;29;20643;-66
2021/04/01 00:16:27;;;;;;;2.92;2.72;;;19.60;51.50;;;;;;4900721;29;20678;-65
2021/04/01 00:18:52;;;;;;;4.70;3.55;;;19.60;50.90;;;;;;4901080;29;20172;-65
2021/04/01 00:21:18;;;;;;;3.47;3.17;;;19.60;50.90;;;;;;4918080;29;20211;-64
2021/04/01 00:23:43;;;;;;;3.40;3.03;;;19.60;50.90;;;;;;4917089;29;20636;-65
2021/04/01 00:26:09;;;;;;;3.40;3.10;;;19.60;50.90;;;;;;4900778;29;20226;-64
2021/04/01 00:28:34;;;;;;;3.70;3.35;;;19.60;50.90;;;;;;4917598;29;20187;-64
2021/04/01 00:31:01;;;;;;;4.13;3.72;;;19.60;50.90;;;;;;4916019;29;20184;-64
2021/04/01 00:33:27;;;;;;;3.85;3.45;;;19.60;50.90;;;;;;4917610;29;20263;-64
2021/04/01 00:35:52;;;;;;;3.50;3.20;;;19.50;50.80;;;;;;4916606;29;20243;-66
2021/04/01 00:38:18;;;;;;;4.15;3.80;;;19.60;51.00;;;;;;4916283;29;20191;-66
2021/04/01 00:40:44;;;;;;;3.60;3.30;;;19.50;50.80;;;;;;4916474;29;20183;-66
2021/04/01 00:43:09;;;;;;;3.50;3.20;;;19.50;50.90;;;;;;4916307;29;20186;-65
2021/04/01 00:45:35;;;;;;;4.57;3.83;;;19.60;50.90;;;;;;4916458;29;20234;-65
2021/04/01 00:48:00;;;;;;;4.10;3.70;;;19.50;50.90;;;;;;4917516;29;20262;-64
2021/04/01 00:50:28;;;;;;;3.30;3.00;;;19.50;50.90;;;;;;4916034;29;20632;-64
2021/04/01 00:52:54;;;;;;;3.95;3.65;;;19.60;51.00;;;;;;4900155;29;20275;-64
2021/04/01 00:55:19;;;;;;;4.07;3.58;;;19.50;50.90;;;;;;4915830;29;20676;-64
2021/04/01 00:57:47;;;;;;;4.13;3.80;;;19.50;50.90;;;;;;4915654;29;20176;-64
2021/04/01 01:00:15;;;;;;;3.75;3.20;;;19.50;50.90;;;;;;4900375;29;20180;-65
2021/04/01 01:02:40;;;;;;;4.15;3.75;;;19.50;50.90;;;;;;4915844;29;20171;-64
2021/04/01 01:05:07;;;;;;;4.50;4.10;;;19.50;51.00;;;;;;4916118;29;20215;-65
2021/04/01 01:07:33;;;;;;;4.00;3.70;;;19.50;50.90;;;;;;4916850;29;20183;-64
2021/04/01 01:09:58;;;;;;;3.80;3.50;;;19.50;50.90;;;;;;4900111;29;20187;-65
2021/04/01 01:12:24;;;;;;;4.40;3.85;;;19.50;51.00;;;;;;4916352;29;20173;-66
2021/04/01 01:14:50;;;;;;;3.97;3.60;;;19.50;50.90;;;;;;4915600;29;20255;-66
2021/04/01 01:17:15;;;;;;;4.35;3.92;;;19.50;51.00;;;;;;4916088;29;20176;-66
2021/04/01 01:19:41;;;;;;;3.70;3.40;;;19.50;50.90;;;;;;4916082;29;20545;-65
2021/04/01 01:22:07;;;;;;;3.90;3.60;;;19.50;50.90;;;;;;4915687;29;20179;-65
2021/04/01 01:24:34;;;;;;;4.10;3.78;;;19.50;50.90;;;;;;4899722;29;20208;-65
2021/04/01 01:27:00;;;;;;;3.92;3.42;;;19.50;51.00;;;;;;4899413;29;20227;-64
2021/04/01 01:29:26;;;;;;;4.40;4.00;;;19.50;51.00;;;;;;4899690;29;20584;-63
2021/04/01 01:31:51;;;;;;;4.10;3.70;;;19.50;51.00;;;;;;4915487;29;20259;-64
2021/04/01 01:34:17;;;;;;;3.78;3.47;;;19.50;50.90;;;;;;4916151;29;20536;-65
2021/04/01 01:36:43;;;;;;;4.22;3.83;;;19.40;50.90;;;;;;4916483;29;20553;-67
2021/04/01 01:39:08;;;;;;;4.15;3.85;;;19.50;51.00;;;;;;4915411;29;20188;-64
2021/04/01 01:41:34;;;;;;;4.18;3.78;;;19.50;51.00;;;;;;4915784;29;20255;-65
2021/04/01 01:44:00;;;;;;;4.15;3.80;;;19.50;51.00;;;;;;4915139;29;20191;-64
2021/04/01 01:46:25;;;;;;;3.50;3.30;;;19.40;51.00;;;;;;4915199;29;20188;-64
2021/04/01 01:48:51;;;;;;;4.00;3.20;;;19.50;51.00;;;;;;4915835;29;20628;-64
2021/04/01 01:51:16;;;;;;;4.18;3.78;;;19.50;51.00;;;;;;4916463;29;20222;-64
2021/04/01 01:53:42;;;;;;;4.22;3.90;;;19.50;51.00;;;;;;4916142;29;20180;-65
2021/04/01 01:56:07;;;;;;;4.13;3.72;;;19.40;51.00;;;;;;4914732;29;20338;-65
2021/04/01 01:58:33;;;;;;;4.45;4.05;;;19.40;51.00;;;;;;4916138;29;20176;-65
2021/04/01 02:01:00;;;;;;;4.95;4.45;;;19.40;51.00;;;;;;4898827;29;20211;-65
2021/04/01 02:03:26;;;;;;;4.13;3.83;;;19.40;51.00;;;;;;4916089;29;20168;-64
2021/04/01 02:05:51;;;;;;;4.60;4.20;;;19.40;51.00;;;;;;4899135;29;20711;-65
2021/04/01 02:08:17;;;;;;;4.15;3.80;;;19.40;51.00;;;;;;4914662;29;20231;-65
2021/04/01 02:10:47;;;;;;;4.28;3.90;;;19.40;51.00;;;;;;4916068;29;20183;-65
2021/04/01 02:13:14;;;;;;;3.97;3.58;;;19.40;51.00;;;;;;4899542;29;20248;-67
2021/04/01 02:15:41;;;;;;;4.10;3.70;;;19.40;51.00;;;;;;4898399;29;20207;-65
2021/04/01 02:18:10;;;;;;;3.58;3.28;;;19.40;51.00;;;;;;4916352;29;20168;-65
2021/04/01 02:20:42;;;;;;;4.32;3.95;;;19.40;51.10;;;;;;4916046;29;20266;-65
2021/04/01 02:23:12;;;;;;;4.38;3.97;;;19.40;51.00;;;;;;4915570;29;20179;-65
2021/04/01 02:25:38;;;;;;;3.55;3.25;;;19.40;51.00;;;;;;4915879;29;20215;-64
2021/04/01 02:28:04;;;;;;;4.28;3.97;;;19.40;51.10;;;;;;4899062;29;20179;-64
2021/04/01 02:30:30;;;;;;;3.95;3.65;;;19.40;51.00;;;;;;4914188;29;20175;-64
2021/04/01 02:32:56;;;;;;;3.78;3.47;;;19.40;51.10;;;;;;4883422;29;20176;-65
2021/04/01 02:35:22;;;;;;;4.32;3.92;;;19.40;51.10;;;;;;4916122;29;20172;-65
2021/04/01 02:37:47;;;;;;;4.15;3.78;;;19.40;51.10;;;;;;4914463;29;20176;-66
2021/04/01 02:40:13;;;;;;;4.10;3.80;;;19.40;51.00;;;;;;4915715;29;20188;-64
2021/04/01 02:42:40;;;;;;;4.25;3.85;;;19.40;51.10;;;;;;4898970;29;20212;-65
2021/04/01 02:45:06;;;;;;;4.13;3.83;;;19.30;51.00;;;;;;4914038;29;20214;-65
2021/04/01 02:47:32;;;;;;;4.28;3.88;;;19.40;51.00;;;;;;4915770;29;20202;-65
2021/04/01 02:49:57;;;;;;;4.80;4.40;;;19.30;51.00;;;;;;4916039;29;20633;-65
2021/04/01 02:52:23;;;;;;;4.05;3.70;;;19.30;51.10;;;;;;4913962;29;20176;-65
2021/04/01 02:54:49;;;;;;;4.38;4.05;;;19.30;51.10;;;;;;4914833;29;20188;-65
2021/04/01 02:57:18;;;;;;;4.50;4.10;;;19.30;51.10;;;;;;4915481;29;20180;-65
2021/04/01 02:59:47;;;;;;;4.00;3.70;;;19.30;51.00;;;;;;4899040;29;20901;-65
2021/04/01 03:02:14;;;;;;;4.00;3.70;;;19.30;51.10;;;;;;4901924;29;20176;-65
2021/04/01 03:04:40;;;;;;;4.50;4.13;;;19.30;51.10;;;;;;4901531;29;20344;-64
2021/04/01 03:07:06;;;;;;;4.15;3.53;;;19.30;51.10;;;;;;4902143;29;20262;-67
2021/04/01 03:09:33;;;;;;;3.75;3.45;;;19.30;51.10;;;;;;4919092;29;20318;-65
2021/04/01 03:11:58;;;;;;;6.28;4.45;;;19.30;51.10;;;;;;4901700;29;20202;-66
2021/04/01 03:14:24;;;;;;;4.20;3.80;;;19.30;51.10;;;;;;4917682;29;20242;-66
2021/04/01 03:16:50;;;;;;;4.18;3.85;;;19.30;51.10;;;;;;4902338;29;20176;-66
2021/04/01 03:19:15;;;;;;;4.35;3.97;;;19.30;51.10;;;;;;4918472;29;20216;-66
2021/04/01 03:21:43;;;;;;;4.18;3.88;;;19.30;51.10;;;;;;4917678;29;20168;-65
2021/04/01 03:24:09;;;;;;;4.50;4.10;;;19.30;51.10;;;;;;4919020;29;20247;-65
2021/04/01 03:26:35;;;;;;;4.05;3.75;;;19.30;51.10;;;;;;4916997;29;20191;-64
2021/04/01 03:29:01;;;;;;;4.05;3.75;;;19.30;51.10;;;;;;4918820;29;20641;-64
2021/04/01 03:31:26;;;;;;;4.45;4.05;;;19.30;51.10;;;;;;4917576;29;20164;-65
2021/04/01 03:33:52;;;;;;;4.60;4.20;;;19.30;51.10;;;;;;4918141;29;20242;-64
2021/04/01 03:36:17;;;;;;;3.85;3.55;;;19.30;51.10;;;;;;4919055;29;20172;-65
2021/04/01 03:38:45;;;;;;;3.53;3.33;;;19.30;51.10;;;;;;4918665;29;20179;-66
2021/04/01 03:41:11;;;;;;;4.15;3.75;;;19.20;51.10;;;;;;4917977;29;20632;-66
2021/04/01 03:43:37;;;;;;;4.13;3.72;;;19.30;51.10;;;;;;4917270;29;20176;-65
2021/04/01 03:46:03;;;;;;;4.15;3.85;;;19.30;51.10;;;;;;4901611;29;20211;-65
2021/04/01 03:48:28;;;;;;;3.97;3.67;;;19.30;51.20;;;;;;4917977;29;20182;-65
2021/04/01 03:50:54;;;;;;;4.07;3.70;;;19.30;51.20;;;;;;4917437;29;20639;-64
2021/04/01 03:53:19;;;;;;;3.88;3.58;;;19.30;51.20;;;;;;4917969;29;20188;-64
2021/04/01 03:55:46;;;;;;;4.03;3.72;;;19.20;51.20;;;;;;4901721;29;20175;-65
2021/04/01 04:00:39;;;;;;;4.40;4.05;;;19.20;51.20;;;;;;4900706;29;20258;-65
2021/04/01 04:05:52;;;;;;;3.95;3.60;;;19.20;51.20;;;;;;4899499;29;20236;-65
2021/04/01 04:08:36;;;;;;;4.80;4.40;;;19.20;51.20;;;;;;4897976;29;20216;-65
2021/04/01 04:13:53;;;;;;;4.15;3.75;;;19.20;51.90;;;;;;4896636;29;20177;-66
2021/04/01 04:16:19;;;;;;;4.22;3.80;;;19.20;51.20;;;;;;4898399;29;20671;-66
2021/04/01 04:18:45;;;;;;;4.18;3.85;;;19.20;51.20;;;;;;4898158;29;20252;-65
2021/04/01 04:21:11;;;;;;;4.47;4.07;;;19.10;51.20;;;;;;4897882;29;20172;-66
2021/04/01 04:23:40;;;;;;;4.25;3.90;;;19.20;51.20;;;;;;4897013;29;20545;-65
2021/04/01 04:26:05;;;;;;;5.63;4.65;;;19.20;51.20;;;;;;4899110;29;20565;-64
2021/04/01 04:28:32;;;;;;;4.03;3.72;;;19.20;51.20;;;;;;4897270;29;20169;-64
2021/04/01 04:30:59;;;;;;;4.63;4.22;;;19.20;51.20;;;;;;4897792;29;20204;-64
2021/04/01 04:33:24;;;;;;;4.10;3.70;;;19.10;51.20;;;;;;4866409;29;20200;-64
2021/04/01 04:35:50;;;;;;;4.75;4.00;;;19.20;51.20;;;;;;4898276;29;20272;-65
2021/04/01 04:38:16;;;;;;;4.35;4.05;;;19.10;51.20;;;;;;4897689;29;20300;-65
2021/04/01 04:40:41;;;;;;;3.85;3.55;;;19.10;51.20;;;;;;4898635;29;20184;-65
2021/04/01 04:43:07;;;;;;;3.80;3.50;;;19.10;51.20;;;;;;4898133;29;20176;-65
2021/04/01 04:45:33;;;;;;;4.75;4.35;;;19.20;51.30;;;;;;4898419;29;20208;-64
2021/04/01 04:47:58;;;;;;;4.88;4.38;;;19.10;51.20;;;;;;4898702;29;20176;-64
2021/04/01 04:50:24;;;;;;;4.55;4.15;;;19.20;51.20;;;;;;4897773;29;20177;-64
2021/04/01 04:52:49;;;;;;;4.53;4.13;;;19.10;51.20;;;;;;4898609;29;20173;-65
2021/04/01 04:55:16;;;;;;;4.70;4.30;;;19.10;51.20;;;;;;4898420;29;20176;-66
2021/04/01 05:05:22;;;;;;;4.40;4.00;;;19.10;51.20;;;;;;4897188;29;20588;-65
2021/04/01 05:07:47;;;;;;;4.55;4.15;;;19.10;51.20;;;;;;4898225;29;20181;-64
2021/04/01 05:10:13;;;;;;;4.63;4.22;;;19.10;51.20;;;;;;4897167;29;20525;-64
2021/04/01 05:12:38;;;;;;;4.68;4.28;;;19.10;51.20;;;;;;4897267;29;20173;-64
2021/04/01 05:15:05;;;;;;;5.45;4.22;;;19.10;51.20;;;;;;4896801;29;20183;-67
2021/04/01 05:17:30;;;;;;;4.57;4.18;;;19.10;51.20;;;;;;4898023;29;20615;-66
2021/04/01 05:20:03;;;;;;;4.45;4.05;;;19.10;51.20;;;;;;4897364;29;20219;-65
2021/04/01 05:24:57;;;;;;;5.30;4.80;;;19.10;51.20;;;;;;4896794;29;20212;-65
2021/04/01 05:27:32;;;;;;;4.57;4.18;;;19.00;51.20;;;;;;4896689;29;20233;-65
2021/04/01 05:29:58;;;;;;;4.95;4.55;;;19.00;51.10;;;;;;4896875;29;20588;-65
2021/04/01 05:32:32;;;;;;;4.60;4.20;;;19.00;51.10;;;;;;4880216;29;20240;-65
2021/04/01 05:35:00;;;;;;;5.10;4.63;;;19.10;51.20;;;;;;4897731;29;20168;-65
2021/04/01 05:37:27;;;;;;;5.20;4.72;;;19.00;51.80;;;;;;4896489;29;20179;-66
2021/04/01 05:39:54;;;;;;;5.25;4.75;;;19.00;51.10;;;;;;4895944;29;20169;-66
2021/04/01 05:42:21;;;;;;;4.88;4.47;;;19.00;51.10;;;;;;4896257;29;20184;-65
2021/04/01 05:44:57;;;;;;;5.28;4.78;;;19.00;51.20;;;;;;4897676;29;20205;-65
2021/04/01 06:05:43;;;;;;;4.85;4.45;;;19.00;51.10;;;;;;4896972;29;20266;-63
2021/04/01 06:08:10;;;;;;;5.35;4.85;;;19.00;51.10;;;;;;4895751;29;20176;-65
2021/04/01 06:10:36;;;;;;;5.50;5.00;;;19.00;51.20;;;;;;4880608;29;20274;-66
2021/04/01 06:13:14;;;;;;;4.68;4.28;;;18.90;51.10;;;;;;4896182;29;20256;-66
2021/04/01 06:15:50;;;;;;;5.05;4.55;;;19.00;51.20;;;;;;4879825;29;20180;-66
2021/04/01 06:18:17;;;;;;;5.18;4.72;;;19.00;51.10;;;;;;4896359;29;20667;-66
2021/04/01 06:20:47;;;;;;;5.25;4.63;;;19.00;51.10;;;;;;4880385;29;20271;-65
2021/04/01 06:23:29;;;;;;;5.07;4.65;;;18.90;51.10;;;;;;4880165;29;20172;-65
2021/04/01 06:25:56;;;;;;;4.97;4.57;;;18.90;51.10;;;;;;4896078;29;20208;-64
2021/04/01 06:28:42;;;;;;;5.03;4.57;;;19.00;51.10;;;;;;4895322;29;20244;-64
2021/04/01 06:31:08;;;;;;;5.30;4.80;;;19.00;51.10;;;;;;4881336;29;20180;-65
2021/04/01 06:33:44;;;;;;;5.60;5.10;;;19.00;51.10;;;;;;4895955;29;20295;-65
2021/04/01 06:36:17;;;;;;;5.30;4.80;;;19.00;51.10;;;;;;4881240;29;20590;-65
2021/04/01 06:38:42;;;;;;;4.68;4.28;;;19.00;51.10;;;;;;4899608;29;20172;-66
2021/04/01 06:41:12;;;;;;;4.95;4.55;;;18.90;51.00;;;;;;4899704;29;20686;-67
2021/04/01 06:44:16;;;;;;;5.28;4.85;;;18.90;51.10;;;;;;4883879;29;20726;-65
2021/04/01 06:46:43;;;;;;;4.90;4.50;;;18.90;51.10;;;;;;4900628;29;20211;-65
2021/04/01 06:57:08;;;;;;;5.60;5.07;;;19.10;51.10;;;;;;4883518;29;20652;-63
2021/04/01 06:59:44;;;;;;;6.22;5.57;;;19.10;51.70;;;;;;4886457;29;20215;-64
2021/04/01 07:04:41;;;;;;;7.55;5.47;;;19.20;51.10;;;;;;4898475;29;20216;-71
2021/04/01 07:07:17;;;;;;;7.45;6.03;;;19.20;51.10;;;;;;4883766;29;20221;-72
2021/04/01 07:12:33;;;;;;;7.07;5.85;;;19.30;51.10;;;;;;4898355;29;20565;-66
2021/04/01 07:15:04;;;;;;;7.85;5.78;;;19.30;51.00;;;;;;4899081;29;20267;-71
2021/04/01 07:17:41;;;;;;;7.72;6.70;;;19.30;50.90;;;;;;4898445;29;20180;-69
2021/04/01 07:47:23;;;;;;;14.57;12.10;;;19.50;50.50;;;;;;4879009;29;20248;-66
2021/04/01 07:49:50;;;;;;;17.27;12.45;;;19.50;51.10;;;;;;4879768;29;20237;-68
2021/04/01 07:52:19;;;;;;;17.55;12.30;;;19.50;50.40;;;;;;4864268;29;20674;-72
2021/04/01 08:00:08;;;;;;;19.00;13.10;;;19.50;50.40;;;;;;4879993;29;20185;-64
2021/04/01 08:05:33;;;;;;;16.83;12.90;;;19.60;50.40;;;;;;4880619;29;20215;-64
2021/04/01 08:08:07;;;;;;;15.30;11.98;;;19.70;50.40;;;;;;4881891;29;20284;-63
2021/04/01 08:10:38;;;;;;;15.32;11.50;;;19.70;50.40;;;;;;4897818;29;20176;-65
2021/04/01 08:13:06;;;;;;;15.13;11.23;;;19.70;50.40;;;;;;4898050;29;20184;-65
2021/04/01 08:15:47;;;;;;;13.55;10.93;;;19.80;50.50;;;;;;4912424;29;20173;-64
2021/04/01 08:20:52;;;;;;;12.25;10.10;;;19.80;50.50;;;;;;4911675;29;20575;-66
2021/04/01 08:23:19;;;;;;;12.95;10.18;;;19.80;50.60;;;;;;4897896;29;20288;-64
2021/04/01 08:33:26;;;;;;;11.38;10.18;;;19.80;50.70;;;;;;4898874;29;20173;-63
2021/04/01 08:35:56;;;;;;;11.82;9.75;;;19.90;50.70;;;;;;4896774;29;20264;-63
2021/04/01 08:38:21;;;;;;;10.85;8.90;;;19.90;50.70;;;;;;4897480;29;20256;-64
2021/04/01 08:40:48;;;;;;;10.10;8.27;;;19.90;50.80;;;;;;4913228;29;20603;-64
2021/04/01 08:43:48;;;;;;;9.75;7.38;;;19.90;50.80;;;;;;4898142;29;20260;-65
2021/04/01 08:46:38;;;;;;;11.85;8.60;;;19.90;50.80;;;;;;4884654;29;20216;-63
2021/04/01 08:49:22;;;;;;;9.77;7.60;;;19.90;50.80;;;;;;4870414;29;20173;-61
2021/04/01 08:51:47;;;;;;;10.68;8.45;;;20.00;51.00;;;;;;4881842;29;20181;-61
2021/04/01 08:54:57;;;;;;;12.10;10.48;;;20.00;50.90;;;;;;4898440;29;20180;-72
2021/04/01 08:57:31;;;;;;;13.35;9.13;;;20.00;50.90;;;;;;4870890;29;20233;-61
2021/04/01 09:00:13;;;;;;;13.38;10.10;;;20.00;50.90;;;;;;4881178;29;20725;-65
2021/04/01 09:02:38;;;;;;;11.50;9.90;;;20.00;50.90;;;;;;4898032;29;20175;-70
2021/04/01 09:05:06;;;;;;;14.93;11.07;;;20.00;50.90;;;;;;4880712;29;20216;-64
2021/04/01 09:07:41;;;;;;;15.68;12.65;;;20.10;50.90;;;;;;4880977;29;20220;-72
2021/04/01 09:10:23;;;;;;;21.15;14.88;;;20.10;50.80;;;;;;4896577;29;20275;-75
2021/04/01 09:17:47;;;;;;;26.08;17.55;;;20.10;50.10;;;;;;4897781;29;20165;-67
2021/04/01 09:20:14;;;;;;;22.95;17.85;;;20.10;50.10;;;;;;4896828;29;20276;-73
2021/04/01 09:22:48;;;;;;;23.52;18.30;;;20.10;50.10;;;;;;4896535;29;20183;-63
2021/04/01 09:25:14;;;;;;;22.67;17.42;;;20.10;50.00;;;;;;4911679;29;20216;-68
2021/04/01 09:27:50;;;;;;;21.27;17.33;;;20.10;50.00;;;;;;4896369;29;20232;-64
2021/04/01 09:30:17;;;;;;;22.63;16.80;;;20.20;50.10;;;;;;4911666;29;20542;-63
2021/04/01 09:32:45;;;;;;;22.45;15.27;;;20.20;50.00;;;;;;4896996;29;20168;-70
2021/04/01 09:35:11;;;;;;;20.30;16.70;;;20.20;50.10;;;;;;4896557;29;20184;-62
2021/04/01 09:38:10;;;;;;;19.05;14.77;;;20.30;50.10;;;;;;4896388;29;20224;-73
2021/04/01 09:40:43;;;;;;;20.52;15.05;;;20.20;50.10;;;;;;4881943;29;20187;-66
2021/04/01 09:43:19;;;;;;;18.15;14.10;;;20.30;50.20;;;;;;4897592;29;20180;-63
2021/04/01 09:45:51;;;;;;;21.65;14.63;;;20.30;50.20;;;;;;4865117;29;20585;-69
2021/04/01 09:48:25;;;;;;;18.55;13.60;;;20.30;50.80;;;;;;4866550;29;20165;-66
2021/04/01 09:50:54;;;;;;;15.98;13.13;;;20.30;50.20;;;;;;4881732;29;20182;-65
2021/04/01 09:53:21;;;;;;;17.92;13.05;;;20.30;50.30;;;;;;4880620;29;20180;-65
2021/04/01 09:55:51;;;;;;;18.58;13.55;;;20.30;50.30;;;;;;4880858;29;20200;-68
2021/04/01 09:58:31;;;;;;;15.23;12.13;;;20.30;50.30;;;;;;4880913;29;20172;-67
2021/04/01 10:01:10;;;;;;;16.45;11.27;;;20.30;50.30;;;;;;4880477;29;20217;-65
2021/04/01 10:03:44;;;;;;;19.08;12.75;;;20.30;51.00;;;;;;4882254;29;20236;-70
2021/04/01 10:06:10;;;;;;;14.50;11.80;;;20.30;50.10;;;;;;4877057;29;20236;-74
2021/04/01 10:08:36;;;;;;;15.45;11.00;;;20.30;50.20;;;;;;4861777;29;20200;-66
2021/04/01 10:11:08;;;;;;;13.35;10.85;;;20.40;50.20;;;;;;4880521;29;20246;-65
2021/04/01 10:13:34;;;;;;;12.90;9.63;;;20.40;50.30;;;;;;4881676;29;20173;-69
2021/04/01 10:15:59;;;;;;;11.90;9.40;;;20.40;50.30;;;;;;4850420;29;20177;-71
2021/04/01 10:18:31;;;;;;;14.02;9.45;;;20.40;50.30;;;;;;4850305;29;20297;-73
2021/04/01 10:21:04;;;;;;;12.18;8.45;;;20.40;50.40;;;;;;4865124;29;20173;-72
2021/04/01 10:23:31;;;;;;;11.90;7.93;;;20.50;50.40;;;;;;4865555;29;20188;-72
2021/04/01 10:26:08;;;;;;;11.07;7.25;;;20.50;50.40;;;;;;4850469;29;20621;-72
2021/04/01 10:31:14;;;;;;;9.27;6.32;;;20.60;50.50;;;;;;4850333;29;20280;-72
2021/04/01 10:34:11;;;;;;;7.47;5.78;;;20.60;50.50;;;;;;4850838;29;20180;-72
2021/04/01 10:36:39;;;;;;;7.07;5.70;;;20.60;50.50;;;;;;4867480;29;20638;-71
2021/04/01 10:39:10;;;;;;;6.60;5.28;;;20.60;50.50;;;;;;4850379;29;20222;-77
2021/04/01 10:41:46;;;;;;;6.07;5.15;;;20.60;50.50;;;;;;4872896;29;20300;-71
2021/04/01 10:44:12;;;;;;;6.40;5.25;;;20.70;50.60;;;;;;4880612;29;20165;-68
2021/04/01 10:46:41;;;;;;;4.80;4.07;;;20.70;50.70;;;;;;4882055;29;21163;-68
2021/04/01 10:49:07;;;;;;;7.07;4.72;;;20.80;50.60;;;;;;4881220;29;20229;-67
2021/04/01 10:51:32;;;;;;;6.18;4.20;;;20.70;50.60;;;;;;4865199;29;20548;-63
2021/04/01 10:53:58;;;;;;;7.60;4.55;;;20.70;50.60;;;;;;4881011;29;20178;-67
2021/04/01 10:56:24;;;;;;;8.15;3.95;;;20.70;50.60;;;;;;4886428;29;20169;-68
2021/04/01 10:58:54;;;;;;;9.15;4.03;;;20.70;50.70;;;;;;4873895;29;20205;-66
2021/04/01 11:01:21;;;;;;;5.70;4.07;;;20.70;50.60;;;;;;4865566;29;20630;-66
2021/04/01 11:03:51;;;;;;;5.47;3.50;;;20.70;50.50;;;;;;4862838;29;20228;-65
2021/04/01 11:06:16;;;;;;;5.95;3.80;;;20.70;50.50;;;;;;4850140;29;20244;-68
2021/04/01 11:08:43;;;;;;;4.28;3.33;;;20.70;51.20;;;;;;4849197;29;20189;-62
2021/04/01 11:11:10;;;;;;;5.05;3.38;;;20.80;50.60;;;;;;4864427;29;20276;-65
2021/04/01 11:13:37;;;;;;;3.85;3.40;;;20.80;50.60;;;;;;4881285;29;20231;-69
2021/04/01 11:16:04;;;;;;;4.05;3.28;;;20.80;50.50;;;;;;4865084;29;20176;-66
2021/04/01 11:18:30;;;;;;;5.50;3.25;;;20.80;50.40;;;;;;4880737;29;20420;-68
2021/04/01 11:20:55;;;;;;;5.57;3.05;;;20.90;51.10;;;;;;4864595;29;20268;-68
2021/04/01 11:23:25;;;;;;;4.90;2.92;;;20.90;50.40;;;;;;4848833;29;20319;-67
2021/04/01 11:25:55;;;;;;;5.32;3.45;;;20.90;50.60;;;;;;4864679;29;20680;-68
2021/04/01 11:28:39;;;;;;;5.20;2.97;;;20.90;50.60;;;;;;4864575;29;20201;-68
2021/04/01 11:31:19;;;;;;;4.22;3.00;;;20.90;50.60;;;;;;4880761;29;20660;-68
2021/04/01 11:33:45;;;;;;;5.80;2.65;;;21.00;50.70;;;;;;4850715;29;20335;-66
2021/04/01 11:36:13;;;;;;;5.25;2.95;;;21.00;50.70;;;;;;4864554;29;20729;-67
2021/04/01 11:38:45;;;;;;;3.83;2.35;;;21.00;50.70;;;;;;4864029;29;20180;-68
2021/04/01 11:41:16;;;;;;;3.72;3.10;;;21.00;50.70;;;;;;4864848;29;20229;-67
2021/04/01 11:43:41;;;;;;;6.90;2.63;;;21.10;50.70;;;;;;4879801;29;20177;-68
2021/04/01 11:46:30;;;;;;;3.42;2.40;;;21.10;50.70;;;;;;4879200;29;20212;-68
2021/04/01 11:48:56;;;;;;;3.08;2.55;;;21.10;50.70;;;;;;4864332;29;20212;-66
2021/04/01 11:51:27;;;;;;;4.38;2.50;;;21.10;50.70;;;;;;4879530;29;20189;-65
2021/04/01 11:53:52;;;;;;;3.10;2.55;;;21.10;50.70;;;;;;4879052;29;20283;-66
2021/04/01 11:56:22;;;;;;;2.83;2.33;;;21.10;50.70;;;;;;4864286;29;20629;-71
2021/04/01 11:58:47;;;;;;;7.80;2.70;;;21.20;50.80;;;;;;4863718;29;20176;-66
2021/04/01 12:01:33;;;;;;;2.45;2.20;;;21.20;50.80;;;;;;4879738;29;20173;-66
2021/04/01 12:04:02;;;;;;;3.38;2.28;;;21.20;50.80;;;;;;4879805;29;20181;-67
2021/04/01 12:06:29;;;;;;;2.80;2.33;;;21.20;50.80;;;;;;4863612;29;20233;-67
2021/04/01 12:08:56;;;;;;;2.80;2.50;;;21.20;50.80;;;;;;4864146;29;20170;-71
2021/04/01 12:11:21;;;;;;;5.20;2.80;;;21.20;50.80;;;;;;4848451;29;20182;-65
2021/04/01 12:13:47;;;;;;;5.38;2.33;;;21.20;50.70;;;;;;4863366;29;20181;-66
2021/04/01 12:16:21;;;;;;;6.05;2.03;;;21.30;51.50;;;;;;4879340;29;20686;-75
2021/04/01 12:18:46;;;;;;;3.63;1.90;;;21.30;50.80;;;;;;4864033;29;20184;-64
2021/04/01 12:21:12;;;;;;;2.60;2.17;;;21.30;50.60;;;;;;4879831;29;20174;-63
2021/04/01 12:23:49;;;;;;;2.40;2.20;;;21.30;50.60;;;;;;4863652;29;20700;-61
2021/04/01 12:26:15;;;;;;;3.65;2.50;;;21.30;50.60;;;;;;4880140;29;20216;-62
2021/04/01 12:28:40;;;;;;;4.70;2.10;;;21.20;50.60;;;;;;4867454;29;20192;-63
2021/04/01 12:31:18;;;;;;;4.00;2.28;;;21.30;50.60;;;;;;4879916;29;20191;-71
2021/04/01 12:33:48;;;;;;;3.22;2.10;;;21.20;50.60;;;;;;4879248;29;20197;-63
2021/04/01 12:36:13;;;;;;;5.68;2.13;;;21.30;50.60;;;;;;4853355;29;20180;-64
2021/04/01 12:38:41;;;;;;;4.50;1.80;;;21.30;50.60;;;;;;4881863;29;20664;-68
2021/04/01 12:41:10;;;;;;;3.88;2.08;;;21.30;50.60;;;;;;4889945;29;20173;-71
2021/04/01 12:43:40;;;;;;;2.42;1.83;;;21.30;50.40;;;;;;4879932;29;20178;-69
2021/04/01 12:46:06;;;;;;;4.28;1.60;;;21.30;50.30;;;;;;4847716;29;20632;-72
2021/04/01 12:48:46;;;;;;;3.83;2.20;;;21.40;50.20;;;;;;4862606;29;20181;-70
2021/04/01 12:51:13;;;;;;;2.60;2.10;;;21.40;50.20;;;;;;4863700;29;20173;-62
2021/04/01 12:53:39;;;;;;;3.92;1.80;;;21.40;50.20;;;;;;4846593;29;20181;-69
2021/04/01 12:56:18;;;;;;;2.45;1.80;;;21.40;50.10;;;;;;4887018;29;20169;-63
2021/04/01 12:58:54;;;;;;;2.97;2.00;;;21.50;50.10;;;;;;4859061;29;20181;-61
2021/04/01 13:04:02;;;;;;;3.70;1.77;;;21.50;50.10;;;;;;4896451;29;20177;-62
2021/04/01 13:09:00;;;;;;;3.83;2.13;;;21.60;50.00;;;;;;4898212;29;20172;-72
2021/04/01 13:11:26;;;;;;;6.93;2.20;;;21.60;50.10;;;;;;4885609;29;20181;-63
2021/04/01 13:13:52;;;;;;;3.42;2.10;;;21.60;49.90;;;;;;4879351;29;20652;-64
2021/04/01 13:16:18;;;;;;;3.75;1.73;;;21.60;49.80;;;;;;4877782;29;20192;-69
2021/04/01 13:18:44;;;;;;;6.38;1.90;;;21.70;49.80;;;;;;4878131;29;20642;-69
2021/04/01 13:24:01;;;;;;;3.38;1.50;;;21.80;49.80;;;;;;4877676;29;20660;-63
2021/04/01 13:26:27;;;;;;;3.45;1.60;;;21.80;49.80;;;;;;4883139;29;20241;-61
2021/04/01 13:28:53;;;;;;;2.55;1.70;;;21.80;49.80;;;;;;4881056;29;20208;-67
2021/04/01 13:31:30;;;;;;;5.03;1.70;;;21.90;49.80;;;;;;4877448;29;20181;-63
2021/04/01 13:34:03;;;;;;;2.78;1.77;;;21.90;49.80;;;;;;4877984;29;20625;-70
2021/04/01 13:36:34;;;;;;;2.75;2.00;;;22.00;49.80;;;;;;4877856;29;20224;-70
2021/04/01 13:39:00;;;;;;;2.88;1.42;;;22.00;49.70;;;;;;4878529;29;20173;-69
2021/04/01 13:41:40;;;;;;;4.45;1.77;;;22.00;49.60;;;;;;4877424;29;20541;-67
2021/04/01 13:44:06;;;;;;;3.42;1.70;;;22.10;49.60;;;;;;4877491;29;20173;-69
2021/04/01 13:46:31;;;;;;;2.67;1.45;;;22.10;49.50;;;;;;4877188;29;20181;-63
2021/04/01 13:48:58;;;;;;;1.95;1.40;;;22.20;49.40;;;;;;4877750;29;20630;-67
2021/04/01 13:51:27;;;;;;;2.95;1.75;;;22.20;50.00;;;;;;4877049;29;20201;-64
2021/04/01 13:56:41;;;;;;;2.47;1.38;;;22.30;49.30;;;;;;4877754;29;20208;-64
2021/04/01 14:09:47;;;;;;;2.45;1.30;;;22.50;49.40;;;;;;4877660;29;20578;-68
2021/04/01 14:12:12;;;;;;;4.47;1.52;;;22.60;49.50;;;;;;4879782;29;20202;-70
2021/04/01 14:14:38;;;;;;;2.75;1.58;;;22.60;50.20;;;;;;4879688;29;21040;-71
2021/04/01 14:17:05;;;;;;;2.38;1.30;;;22.60;49.40;;;;;;4880522;29;20187;-71
2021/04/01 14:19:30;;;;;;;2.30;1.60;;;22.60;49.40;;;;;;4896424;29;20637;-70
2021/04/01 14:21:58;;;;;;;1.92;1.20;;;22.50;49.20;;;;;;4897256;29;20249;-69
2021/04/01 14:24:32;;;;;;;3.72;1.80;;;22.50;49.80;;;;;;4896810;29;20177;-70
2021/04/01 14:29:32;;;;;;;2.53;1.50;;;22.50;49.80;;;;;;4897371;29;20173;-68
2021/04/01 14:31:58;;;;;;;2.17;1.35;;;22.50;49.00;;;;;;4880540;29;20176;-68
2021/04/01 14:34:24;;;;;;;2.92;1.35;;;22.50;49.00;;;;;;4879705;29;20173;-69
2021/04/01 14:36:53;;;;;;;4.03;1.67;;;22.50;49.00;;;;;;4880471;29;20232;-70
2021/04/01 14:39:19;;;;;;;2.15;1.35;;;22.50;49.00;;;;;;4896897;29;20176;-70
2021/04/01 14:41:54;;;;;;;3.22;1.42;;;22.40;48.90;;;;;;4864454;29;20550;-70
2021/04/01 14:44:21;;;;;;;3.28;1.70;;;22.40;49.60;;;;;;4865618;29;20516;-71
2021/04/01 14:46:46;;;;;;;3.47;2.00;;;22.40;48.90;;;;;;4880764;29;20169;-71
2021/04/01 14:49:13;;;;;;;5.35;1.77;;;22.40;48.90;;;;;;4896426;29;20649;-71
2021/04/01 14:51:39;;;;;;;2.55;1.60;;;22.30;48.80;;;;;;4880215;29;20176;-70
2021/04/01 14:54:10;;;;;;;2.97;1.40;;;22.30;48.90;;;;;;4896998;29;20191;-70
2021/04/01 14:56:36;;;;;;;2.78;1.60;;;22.30;48.90;;;;;;4880871;29;20176;-71
2021/04/01 14:59:06;;;;;;;4.72;1.60;;;22.20;48.90;;;;;;4883877;29;20625;-71